Terminal Aerodrome Forecast
Issued by NWS

Home | Current Version | Previous Version | Text Only | Print | Product List | Glossary On
Versions: 1 2 3 4 5 6 7 8 9 10 11 12 13 14 15 16 17 18 19 20 21 22 23 24 25
733
FTUS46 KMTR 172327
TAFSFO
TAF
KSFO 172327Z 1800/1906 29018KT P6SM SKC
     FM180600 29014KT P6SM SCT015
     FM180800 29012KT P6SM BKN015
     FM181700 29016KT P6SM SCT015 BKN200
     FM182000 28020G26KT P6SM BKN200
     FM182300 28025G32KT P6SM BKN200=

USA.gov is the U.S. government's official web portal to all federal, state and local government web resources and services.